sensor_id;sensor_type;location;lat;lon;timestamp;P1;durP1;ratioP1;P2;durP2;ratioP2
5285;SDS011;2665;53.112;7.358;2024-02-21T00:01:46;17.90;;;10.77;;
5285;SDS011;2665;53.112;7.358;2024-02-21T00:04:11;20.30;;;10.37;;
5285;SDS011;2665;53.112;7.358;2024-02-21T00:06:37;22.03;;;10.07;;
5285;SDS011;2665;53.112;7.358;2024-02-21T00:09:02;22.20;;;9.53;;
5285;SDS011;2665;53.112;7.358;2024-02-21T00:11:28;20.20;;;10.53;;
5285;SDS011;2665;53.112;7.358;2024-02-21T00:13:54;19.50;;;9.70;;
5285;SDS011;2665;53.112;7.358;2024-02-21T00:16:20;19.73;;;10.70;;
5285;SDS011;2665;53.112;7.358;2024-02-21T00:18:46;23.10;;;10.30;;
5285;SDS011;2665;53.112;7.358;2024-02-21T00:21:11;18.07;;;8.90;;
5285;SDS011;2665;53.112;7.358;2024-02-21T00:23:42;21.00;;;9.50;;
5285;SDS011;2665;53.112;7.358;2024-02-21T00:26:10;20.17;;;8.63;;
5285;SDS011;2665;53.112;7.358;2024-02-21T00:28:37;11.43;;;8.70;;
5285;SDS011;2665;53.112;7.358;2024-02-21T00:31:03;11.60;;;6.80;;
5285;SDS011;2665;53.112;7.358;2024-02-21T00:33:28;16.13;;;8.23;;
5285;SDS011;2665;53.112;7.358;2024-02-21T00:35:54;26.63;;;8.20;;
5285;SDS011;2665;53.112;7.358;2024-02-21T00:38:20;21.90;;;8.67;;
5285;SDS011;2665;53.112;7.358;2024-02-21T00:40:45;16.17;;;9.13;;
5285;SDS011;2665;53.112;7.358;2024-02-21T00:43:11;26.20;;;8.90;;
5285;SDS011;2665;53.112;7.358;2024-02-21T00:45:37;17.93;;;7.80;;
5285;SDS011;2665;53.112;7.358;2024-02-21T00:48:02;16.47;;;7.87;;
5285;SDS011;2665;53.112;7.358;2024-02-21T00:50:29;17.50;;;7.70;;
5285;SDS011;2665;53.112;7.358;2024-02-21T00:52:55;16.30;;;9.77;;
5285;SDS011;2665;53.112;7.358;2024-02-21T00:55:20;17.60;;;7.37;;
5285;SDS011;2665;53.112;7.358;2024-02-21T00:57:46;18.27;;;7.00;;
5285;SDS011;2665;53.112;7.358;2024-02-21T01:00:12;17.50;;;7.03;;
5285;SDS011;2665;53.112;7.358;2024-02-21T01:02:38;20.33;;;7.90;;
5285;SDS011;2665;53.112;7.358;2024-02-21T01:05:03;15.57;;;7.60;;
5285;SDS011;2665;53.112;7.358;2024-02-21T01:07:29;20.50;;;7.37;;
5285;SDS011;2665;53.112;7.358;2024-02-21T01:09:55;25.60;;;7.07;;
5285;SDS011;2665;53.112;7.358;2024-02-21T01:12:21;15.10;;;8.00;;
5285;SDS011;2665;53.112;7.358;2024-02-21T01:14:46;14.23;;;7.40;;
5285;SDS011;2665;53.112;7.358;2024-02-21T01:17:12;12.80;;;7.43;;
5285;SDS011;2665;53.112;7.358;2024-02-21T01:19:38;18.10;;;7.00;;
5285;SDS011;2665;53.112;7.358;2024-02-21T01:22:04;13.23;;;6.77;;
5285;SDS011;2665;53.112;7.358;2024-02-21T01:24:29;13.10;;;7.60;;
5285;SDS011;2665;53.112;7.358;2024-02-21T01:26:55;17.80;;;7.57;;
5285;SDS011;2665;53.112;7.358;2024-02-21T01:29:21;19.67;;;7.37;;
5285;SDS011;2665;53.112;7.358;2024-02-21T01:31:46;14.97;;;7.33;;
5285;SDS011;2665;53.112;7.358;2024-02-21T01:34:12;14.90;;;6.33;;
5285;SDS011;2665;53.112;7.358;2024-02-21T01:36:38;11.20;;;7.27;;
5285;SDS011;2665;53.112;7.358;2024-02-21T01:39:04;14.80;;;8.87;;
5285;SDS011;2665;53.112;7.358;2024-02-21T01:41:30;11.40;;;7.87;;
5285;SDS011;2665;53.112;7.358;2024-02-21T01:43:56;12.17;;;6.67;;
5285;SDS011;2665;53.112;7.358;2024-02-21T01:46:22;17.40;;;6.70;;
5285;SDS011;2665;53.112;7.358;2024-02-21T01:48:52;20.27;;;6.97;;
5285;SDS011;2665;53.112;7.358;2024-02-21T01:51:19;12.93;;;5.50;;
5285;SDS011;2665;53.112;7.358;2024-02-21T01:53:44;10.93;;;5.63;;
5285;SDS011;2665;53.112;7.358;2024-02-21T01:56:11;14.13;;;6.17;;
5285;SDS011;2665;53.112;7.358;2024-02-21T01:58:38;10.27;;;5.40;;
5285;SDS011;2665;53.112;7.358;2024-02-21T02:01:07;15.30;;;5.27;;
5285;SDS011;2665;53.112;7.358;2024-02-21T02:03:33;14.23;;;5.77;;
5285;SDS011;2665;53.112;7.358;2024-02-21T02:05:59;14.67;;;5.93;;
5285;SDS011;2665;53.112;7.358;2024-02-21T02:08:25;7.50;;;5.30;;
5285;SDS011;2665;53.112;7.358;2024-02-21T02:10:51;12.20;;;4.90;;
5285;SDS011;2665;53.112;7.358;2024-02-21T02:13:17;10.03;;;5.00;;
5285;SDS011;2665;53.112;7.358;2024-02-21T02:15:44;12.90;;;5.53;;
5285;SDS011;2665;53.112;7.358;2024-02-21T02:18:11;8.00;;;4.80;;
5285;SDS011;2665;53.112;7.358;2024-02-21T02:20:38;12.53;;;5.10;;
5285;SDS011;2665;53.112;7.358;2024-02-21T02:23:09;8.63;;;4.73;;
5285;SDS011;2665;53.112;7.358;2024-02-21T02:25:35;13.73;;;5.20;;
5285;SDS011;2665;53.112;7.358;2024-02-21T02:28:08;9.57;;;4.27;;
5285;SDS011;2665;53.112;7.358;2024-02-21T02:30:37;17.60;;;5.97;;
5285;SDS011;2665;53.112;7.358;2024-02-21T02:33:05;6.50;;;4.23;;
5285;SDS011;2665;53.112;7.358;2024-02-21T02:35:31;10.00;;;5.03;;
5285;SDS011;2665;53.112;7.358;2024-02-21T02:37:58;8.57;;;4.80;;
5285;SDS011;2665;53.112;7.358;2024-02-21T02:40:24;13.10;;;4.80;;
5285;SDS011;2665;53.112;7.358;2024-02-21T02:42:50;8.43;;;4.67;;
5285;SDS011;2665;53.112;7.358;2024-02-21T02:45:16;9.80;;;4.33;;
5285;SDS011;2665;53.112;7.358;2024-02-21T02:47:46;9.00;;;4.20;;
5285;SDS011;2665;53.112;7.358;2024-02-21T02:50:12;8.60;;;4.50;;
5285;SDS011;2665;53.112;7.358;2024-02-21T02:52:38;15.50;;;4.57;;
5285;SDS011;2665;53.112;7.358;2024-02-21T02:55:04;13.70;;;5.67;;
5285;SDS011;2665;53.112;7.358;2024-02-21T02:57:30;12.70;;;5.73;;
5285;SDS011;2665;53.112;7.358;2024-02-21T02:59:55;14.03;;;5.00;;
5285;SDS011;2665;53.112;7.358;2024-02-21T03:02:21;11.00;;;4.27;;
5285;SDS011;2665;53.112;7.358;2024-02-21T03:04:47;7.40;;;4.57;;
5285;SDS011;2665;53.112;7.358;2024-02-21T03:07:13;9.50;;;4.40;;
5285;SDS011;2665;53.112;7.358;2024-02-21T03:09:40;11.60;;;4.07;;
5285;SDS011;2665;53.112;7.358;2024-02-21T03:12:07;6.10;;;4.10;;
5285;SDS011;2665;53.112;7.358;2024-02-21T03:14:34;11.47;;;4.23;;
5285;SDS011;2665;53.112;7.358;2024-02-21T03:17:00;9.13;;;4.33;;
5285;SDS011;2665;53.112;7.358;2024-02-21T03:19:27;8.50;;;4.37;;
5285;SDS011;2665;53.112;7.358;2024-02-21T03:21:53;5.60;;;3.43;;
5285;SDS011;2665;53.112;7.358;2024-02-21T03:24:20;11.87;;;5.10;;
5285;SDS011;2665;53.112;7.358;2024-02-21T03:26:46;10.17;;;5.07;;
5285;SDS011;2665;53.112;7.358;2024-02-21T03:29:16;5.87;;;4.10;;
5285;SDS011;2665;53.112;7.358;2024-02-21T03:31:42;9.83;;;3.90;;
5285;SDS011;2665;53.112;7.358;2024-02-21T03:34:08;8.43;;;3.83;;
5285;SDS011;2665;53.112;7.358;2024-02-21T03:36:35;4.30;;;3.43;;
5285;SDS011;2665;53.112;7.358;2024-02-21T03:39:01;8.70;;;4.07;;
5285;SDS011;2665;53.112;7.358;2024-02-21T03:41:26;6.20;;;4.20;;
5285;SDS011;2665;53.112;7.358;2024-02-21T03:43:52;8.07;;;3.77;;
5285;SDS011;2665;53.112;7.358;2024-02-21T03:46:18;11.50;;;5.27;;
5285;SDS011;2665;53.112;7.358;2024-02-21T03:48:43;4.53;;;2.87;;
5285;SDS011;2665;53.112;7.358;2024-02-21T03:51:10;7.67;;;4.20;;
5285;SDS011;2665;53.112;7.358;2024-02-21T03:53:36;9.20;;;3.70;;
5285;SDS011;2665;53.112;7.358;2024-02-21T03:56:01;7.07;;;3.57;;
5285;SDS011;2665;53.112;7.358;2024-02-21T03:58:29;7.63;;;4.07;;
5285;SDS011;2665;53.112;7.358;2024-02-21T04:00:55;9.77;;;4.33;;
5285;SDS011;2665;53.112;7.358;2024-02-21T04:03:21;4.83;;;3.40;;
5285;SDS011;2665;53.112;7.358;2024-02-21T04:05:46;6.20;;;3.40;;
5285;SDS011;2665;53.112;7.358;2024-02-21T04:08:12;12.83;;;4.13;;
5285;SDS011;2665;53.112;7.358;2024-02-21T04:10:38;16.03;;;5.20;;
5285;SDS011;2665;53.112;7.358;2024-02-21T04:13:05;6.80;;;3.37;;
5285;SDS011;2665;53.112;7.358;2024-02-21T04:15:31;7.40;;;4.23;;
5285;SDS011;2665;53.112;7.358;2024-02-21T04:17:57;6.43;;;3.40;;
5285;SDS011;2665;53.112;7.358;2024-02-21T04:20:23;7.13;;;3.53;;
5285;SDS011;2665;53.112;7.358;2024-02-21T04:22:49;7.23;;;3.93;;
5285;SDS011;2665;53.112;7.358;2024-02-21T04:25:14;5.50;;;3.60;;
5285;SDS011;2665;53.112;7.358;2024-02-21T04:27:40;11.27;;;4.43;;
5285;SDS011;2665;53.112;7.358;2024-02-21T04:30:07;10.40;;;4.30;;
5285;SDS011;2665;53.112;7.358;2024-02-21T04:32:33;8.30;;;3.20;;
5285;SDS011;2665;53.112;7.358;2024-02-21T04:34:58;7.93;;;4.70;;
5285;SDS011;2665;53.112;7.358;2024-02-21T04:37:24;7.80;;;3.97;;
5285;SDS011;2665;53.112;7.358;2024-02-21T04:39:50;9.03;;;4.40;;
5285;SDS011;2665;53.112;7.358;2024-02-21T04:42:16;9.63;;;3.10;;
5285;SDS011;2665;53.112;7.358;2024-02-21T04:44:42;6.27;;;4.17;;
5285;SDS011;2665;53.112;7.358;2024-02-21T04:47:08;6.23;;;4.00;;
5285;SDS011;2665;53.112;7.358;2024-02-21T04:49:34;8.93;;;4.90;;
5285;SDS011;2665;53.112;7.358;2024-02-21T04:52:00;15.37;;;4.07;;
5285;SDS011;2665;53.112;7.358;2024-02-21T04:54:26;7.03;;;4.30;;
5285;SDS011;2665;53.112;7.358;2024-02-21T04:56:51;9.93;;;4.23;;
5285;SDS011;2665;53.112;7.358;2024-02-21T04:59:17;13.50;;;5.00;;
5285;SDS011;2665;53.112;7.358;2024-02-21T05:01:43;12.17;;;4.27;;
5285;SDS011;2665;53.112;7.358;2024-02-21T05:04:08;5.23;;;3.50;;
5285;SDS011;2665;53.112;7.358;2024-02-21T05:06:38;9.40;;;4.50;;
5285;SDS011;2665;53.112;7.358;2024-02-21T05:09:04;10.90;;;3.87;;
5285;SDS011;2665;53.112;7.358;2024-02-21T05:11:29;10.03;;;3.97;;
5285;SDS011;2665;53.112;7.358;2024-02-21T05:13:56;9.50;;;4.30;;
5285;SDS011;2665;53.112;7.358;2024-02-21T05:16:21;10.00;;;4.50;;
5285;SDS011;2665;53.112;7.358;2024-02-21T05:18:47;5.67;;;4.13;;
5285;SDS011;2665;53.112;7.358;2024-02-21T05:21:13;9.27;;;3.80;;
5285;SDS011;2665;53.112;7.358;2024-02-21T05:23:38;12.83;;;2.90;;
5285;SDS011;2665;53.112;7.358;2024-02-21T05:26:04;9.73;;;3.70;;
5285;SDS011;2665;53.112;7.358;2024-02-21T05:28:30;6.13;;;3.30;;
5285;SDS011;2665;53.112;7.358;2024-02-21T05:30:56;6.10;;;3.57;;
5285;SDS011;2665;53.112;7.358;2024-02-21T05:33:24;5.40;;;3.67;;
5285;SDS011;2665;53.112;7.358;2024-02-21T05:35:50;7.47;;;3.00;;
5285;SDS011;2665;53.112;7.358;2024-02-21T05:38:16;6.93;;;3.60;;
5285;SDS011;2665;53.112;7.358;2024-02-21T05:40:42;12.37;;;4.60;;
5285;SDS011;2665;53.112;7.358;2024-02-21T05:43:09;5.17;;;3.80;;
5285;SDS011;2665;53.112;7.358;2024-02-21T05:45:35;15.10;;;4.30;;
5285;SDS011;2665;53.112;7.358;2024-02-21T05:48:02;4.63;;;3.53;;
5285;SDS011;2665;53.112;7.358;2024-02-21T05:50:28;5.23;;;3.30;;
5285;SDS011;2665;53.112;7.358;2024-02-21T05:52:54;9.03;;;5.00;;
5285;SDS011;2665;53.112;7.358;2024-02-21T05:55:20;14.13;;;4.50;;
5285;SDS011;2665;53.112;7.358;2024-02-21T05:57:47;4.27;;;3.40;;
5285;SDS011;2665;53.112;7.358;2024-02-21T06:00:12;9.37;;;4.30;;
5285;SDS011;2665;53.112;7.358;2024-02-21T06:02:39;10.30;;;4.17;;
5285;SDS011;2665;53.112;7.358;2024-02-21T06:05:05;13.90;;;4.37;;
5285;SDS011;2665;53.112;7.358;2024-02-21T06:07:32;8.80;;;4.10;;
5285;SDS011;2665;53.112;7.358;2024-02-21T06:09:59;8.93;;;4.77;;
5285;SDS011;2665;53.112;7.358;2024-02-21T06:12:25;10.93;;;5.20;;
5285;SDS011;2665;53.112;7.358;2024-02-21T06:14:51;18.73;;;5.47;;
5285;SDS011;2665;53.112;7.358;2024-02-21T06:17:17;16.70;;;5.67;;
5285;SDS011;2665;53.112;7.358;2024-02-21T06:19:43;12.13;;;5.80;;
5285;SDS011;2665;53.112;7.358;2024-02-21T06:22:09;11.40;;;5.40;;
5285;SDS011;2665;53.112;7.358;2024-02-21T06:24:35;28.33;;;6.33;;
5285;SDS011;2665;53.112;7.358;2024-02-21T06:27:02;16.00;;;5.70;;
5285;SDS011;2665;53.112;7.358;2024-02-21T06:29:33;12.27;;;5.73;;
5285;SDS011;2665;53.112;7.358;2024-02-21T06:32:00;14.40;;;6.00;;
5285;SDS011;2665;53.112;7.358;2024-02-21T06:34:27;10.70;;;6.33;;
5285;SDS011;2665;53.112;7.358;2024-02-21T06:36:53;18.40;;;7.10;;
5285;SDS011;2665;53.112;7.358;2024-02-21T06:39:18;13.97;;;7.50;;
5285;SDS011;2665;53.112;7.358;2024-02-21T06:41:44;16.73;;;6.60;;
5285;SDS011;2665;53.112;7.358;2024-02-21T06:44:10;23.63;;;7.50;;
5285;SDS011;2665;53.112;7.358;2024-02-21T06:46:35;11.43;;;6.40;;
5285;SDS011;2665;53.112;7.358;2024-02-21T06:49:02;17.53;;;7.53;;
5285;SDS011;2665;53.112;7.358;2024-02-21T06:51:30;19.40;;;6.60;;
5285;SDS011;2665;53.112;7.358;2024-02-21T06:53:56;20.50;;;8.10;;
5285;SDS011;2665;53.112;7.358;2024-02-21T06:56:23;17.13;;;6.97;;
5285;SDS011;2665;53.112;7.358;2024-02-21T06:58:56;18.90;;;7.87;;
5285;SDS011;2665;53.112;7.358;2024-02-21T07:01:23;22.57;;;7.60;;
5285;SDS011;2665;53.112;7.358;2024-02-21T07:03:49;24.63;;;7.07;;
5285;SDS011;2665;53.112;7.358;2024-02-21T07:06:15;12.40;;;6.30;;
5285;SDS011;2665;53.112;7.358;2024-02-21T07:08:40;24.30;;;7.07;;
5285;SDS011;2665;53.112;7.358;2024-02-21T07:11:06;12.30;;;6.40;;
5285;SDS011;2665;53.112;7.358;2024-02-21T07:13:32;21.50;;;6.93;;
5285;SDS011;2665;53.112;7.358;2024-02-21T07:15:58;18.77;;;6.93;;
5285;SDS011;2665;53.112;7.358;2024-02-21T07:18:23;22.93;;;7.87;;
5285;SDS011;2665;53.112;7.358;2024-02-21T07:20:50;22.60;;;6.47;;
5285;SDS011;2665;53.112;7.358;2024-02-21T07:23:17;14.37;;;7.20;;
5285;SDS011;2665;53.112;7.358;2024-02-21T07:25:43;21.33;;;6.80;;
5285;SDS011;2665;53.112;7.358;2024-02-21T07:28:08;14.90;;;6.40;;
5285;SDS011;2665;53.112;7.358;2024-02-21T07:30:34;22.77;;;8.17;;
5285;SDS011;2665;53.112;7.358;2024-02-21T07:33:00;22.40;;;6.00;;
5285;SDS011;2665;53.112;7.358;2024-02-21T07:35:26;17.40;;;6.57;;
5285;SDS011;2665;53.112;7.358;2024-02-21T07:37:52;21.43;;;6.87;;
5285;SDS011;2665;53.112;7.358;2024-02-21T07:40:17;19.30;;;6.97;;
5285;SDS011;2665;53.112;7.358;2024-02-21T07:42:43;17.50;;;7.20;;
5285;SDS011;2665;53.112;7.358;2024-02-21T07:45:09;25.90;;;7.30;;
5285;SDS011;2665;53.112;7.358;2024-02-21T07:47:36;26.30;;;7.90;;
5285;SDS011;2665;53.112;7.358;2024-02-21T07:50:02;18.03;;;7.70;;
5285;SDS011;2665;53.112;7.358;2024-02-21T07:52:32;22.53;;;7.83;;
5285;SDS011;2665;53.112;7.358;2024-02-21T07:54:57;21.47;;;8.87;;
5285;SDS011;2665;53.112;7.358;2024-02-21T07:57:23;15.40;;;7.33;;
5285;SDS011;2665;53.112;7.358;2024-02-21T07:59:48;15.20;;;6.97;;
5285;SDS011;2665;53.112;7.358;2024-02-21T08:02:14;18.23;;;7.83;;
5285;SDS011;2665;53.112;7.358;2024-02-21T08:04:40;16.23;;;7.80;;
5285;SDS011;2665;53.112;7.358;2024-02-21T08:07:06;24.63;;;7.93;;
5285;SDS011;2665;53.112;7.358;2024-02-21T08:09:32;30.43;;;9.00;;
5285;SDS011;2665;53.112;7.358;2024-02-21T08:11:58;26.60;;;8.50;;
5285;SDS011;2665;53.112;7.358;2024-02-21T08:14:24;19.80;;;7.53;;
5285;SDS011;2665;53.112;7.358;2024-02-21T08:16:52;24.30;;;7.83;;
5285;SDS011;2665;53.112;7.358;2024-02-21T08:19:19;28.97;;;8.13;;
5285;SDS011;2665;53.112;7.358;2024-02-21T08:21:45;22.60;;;9.13;;
5285;SDS011;2665;53.112;7.358;2024-02-21T08:24:13;23.47;;;7.90;;
5285;SDS011;2665;53.112;7.358;2024-02-21T08:26:43;24.97;;;8.50;;
5285;SDS011;2665;53.112;7.358;2024-02-21T08:29:12;21.63;;;8.07;;
5285;SDS011;2665;53.112;7.358;2024-02-21T08:31:38;18.10;;;8.47;;
5285;SDS011;2665;53.112;7.358;2024-02-21T08:34:04;19.63;;;8.67;;
5285;SDS011;2665;53.112;7.358;2024-02-21T08:36:33;19.50;;;7.63;;
5285;SDS011;2665;53.112;7.358;2024-02-21T08:39:00;16.60;;;7.20;;
5285;SDS011;2665;53.112;7.358;2024-02-21T08:41:28;22.20;;;8.40;;
5285;SDS011;2665;53.112;7.358;2024-02-21T08:43:55;19.77;;;8.83;;
5285;SDS011;2665;53.112;7.358;2024-02-21T08:46:21;26.87;;;8.30;;
5285;SDS011;2665;53.112;7.358;2024-02-21T08:48:46;24.37;;;9.00;;
5285;SDS011;2665;53.112;7.358;2024-02-21T08:51:13;13.27;;;7.97;;
5285;SDS011;2665;53.112;7.358;2024-02-21T08:53:38;16.57;;;7.10;;
5285;SDS011;2665;53.112;7.358;2024-02-21T08:56:05;14.33;;;8.70;;
5285;SDS011;2665;53.112;7.358;2024-02-21T08:58:32;20.70;;;9.80;;
5285;SDS011;2665;53.112;7.358;2024-02-21T09:00:58;23.23;;;10.43;;
5285;SDS011;2665;53.112;7.358;2024-02-21T09:03:24;24.03;;;9.93;;
5285;SDS011;2665;53.112;7.358;2024-02-21T09:05:50;22.50;;;10.40;;
5285;SDS011;2665;53.112;7.358;2024-02-21T09:08:15;15.17;;;8.77;;
5285;SDS011;2665;53.112;7.358;2024-02-21T09:10:41;23.27;;;11.70;;
5285;SDS011;2665;53.112;7.358;2024-02-21T09:13:07;24.63;;;10.90;;
5285;SDS011;2665;53.112;7.358;2024-02-21T09:15:33;18.33;;;9.50;;
5285;SDS011;2665;53.112;7.358;2024-02-21T09:17:59;24.33;;;9.80;;
5285;SDS011;2665;53.112;7.358;2024-02-21T09:20:25;21.97;;;11.30;;
5285;SDS011;2665;53.112;7.358;2024-02-21T09:22:50;22.60;;;10.57;;
5285;SDS011;2665;53.112;7.358;2024-02-21T09:25:17;20.73;;;11.47;;
5285;SDS011;2665;53.112;7.358;2024-02-21T09:27:44;21.50;;;10.93;;
5285;SDS011;2665;53.112;7.358;2024-02-21T09:30:10;23.63;;;10.33;;
5285;SDS011;2665;53.112;7.358;2024-02-21T09:32:36;22.50;;;10.80;;
5285;SDS011;2665;53.112;7.358;2024-02-21T09:35:02;17.17;;;9.17;;
5285;SDS011;2665;53.112;7.358;2024-02-21T09:37:28;19.43;;;10.37;;
5285;SDS011;2665;53.112;7.358;2024-02-21T09:39:54;17.77;;;10.20;;
5285;SDS011;2665;53.112;7.358;2024-02-21T09:42:20;16.00;;;9.20;;
5285;SDS011;2665;53.112;7.358;2024-02-21T09:44:49;17.53;;;8.97;;
5285;SDS011;2665;53.112;7.358;2024-02-21T09:47:21;19.17;;;11.10;;
5285;SDS011;2665;53.112;7.358;2024-02-21T09:49:49;18.97;;;9.47;;
5285;SDS011;2665;53.112;7.358;2024-02-21T09:52:17;16.37;;;9.60;;
5285;SDS011;2665;53.112;7.358;2024-02-21T09:54:44;19.60;;;9.00;;
5285;SDS011;2665;53.112;7.358;2024-02-21T09:57:10;14.53;;;9.70;;
5285;SDS011;2665;53.112;7.358;2024-02-21T09:59:36;26.70;;;11.53;;
5285;SDS011;2665;53.112;7.358;2024-02-21T10:02:02;26.23;;;11.00;;
5285;SDS011;2665;53.112;7.358;2024-02-21T10:04:29;19.30;;;11.80;;
5285;SDS011;2665;53.112;7.358;2024-02-21T10:06:56;20.03;;;10.00;;
5285;SDS011;2665;53.112;7.358;2024-02-21T10:09:25;16.10;;;11.00;;
5285;SDS011;2665;53.112;7.358;2024-02-21T10:11:53;18.67;;;10.20;;
5285;SDS011;2665;53.112;7.358;2024-02-21T10:14:19;21.40;;;10.87;;
5285;SDS011;2665;53.112;7.358;2024-02-21T10:16:49;19.07;;;11.60;;
5285;SDS011;2665;53.112;7.358;2024-02-21T10:19:23;13.37;;;9.50;;
5285;SDS011;2665;53.112;7.358;2024-02-21T10:22:05;20.73;;;11.23;;
5285;SDS011;2665;53.112;7.358;2024-02-21T10:24:34;23.43;;;11.30;;
5285;SDS011;2665;53.112;7.358;2024-02-21T10:27:03;20.70;;;9.43;;
5285;SDS011;2665;53.112;7.358;2024-02-21T10:29:30;18.93;;;9.90;;
5285;SDS011;2665;53.112;7.358;2024-02-21T10:32:30;19.17;;;9.07;;
5285;SDS011;2665;53.112;7.358;2024-02-21T10:34:50;19.50;;;9.27;;
5285;SDS011;2665;53.112;7.358;2024-02-21T10:37:25;13.73;;;8.50;;
5285;SDS011;2665;53.112;7.358;2024-02-21T10:39:50;22.00;;;10.00;;
5285;SDS011;2665;53.112;7.358;2024-02-21T10:42:16;13.70;;;7.90;;
5285;SDS011;2665;53.112;7.358;2024-02-21T10:44:46;22.83;;;8.67;;
5285;SDS011;2665;53.112;7.358;2024-02-21T10:47:17;23.77;;;8.90;;
5285;SDS011;2665;53.112;7.358;2024-02-21T10:49:46;13.90;;;8.67;;
5285;SDS011;2665;53.112;7.358;2024-02-21T10:52:27;13.70;;;7.60;;
5285;SDS011;2665;53.112;7.358;2024-02-21T10:55:09;13.50;;;7.70;;
5285;SDS011;2665;53.112;7.358;2024-02-21T10:57:41;22.33;;;8.10;;
5285;SDS011;2665;53.112;7.358;2024-02-21T11:00:07;16.47;;;8.50;;
5285;SDS011;2665;53.112;7.358;2024-02-21T11:02:37;15.03;;;6.70;;
5285;SDS011;2665;53.112;7.358;2024-02-21T11:05:04;12.93;;;7.50;;
5285;SDS011;2665;53.112;7.358;2024-02-21T11:07:31;12.03;;;6.90;;
5285;SDS011;2665;53.112;7.358;2024-02-21T11:10:00;10.33;;;6.90;;
5285;SDS011;2665;53.112;7.358;2024-02-21T11:12:25;13.23;;;7.27;;
5285;SDS011;2665;53.112;7.358;2024-02-21T11:14:52;14.63;;;8.63;;
5285;SDS011;2665;53.112;7.358;2024-02-21T11:17:29;12.10;;;6.43;;
5285;SDS011;2665;53.112;7.358;2024-02-21T11:19:55;17.93;;;6.13;;
5285;SDS011;2665;53.112;7.358;2024-02-21T11:22:20;15.93;;;7.57;;
5285;SDS011;2665;53.112;7.358;2024-02-21T11:24:49;11.17;;;6.30;;
5285;SDS011;2665;53.112;7.358;2024-02-21T11:27:15;10.73;;;5.97;;
5285;SDS011;2665;53.112;7.358;2024-02-21T11:29:46;16.63;;;7.03;;
5285;SDS011;2665;53.112;7.358;2024-02-21T11:32:16;10.43;;;5.47;;
5285;SDS011;2665;53.112;7.358;2024-02-21T11:34:59;12.80;;;5.20;;
5285;SDS011;2665;53.112;7.358;2024-02-21T11:37:28;15.07;;;5.70;;
5285;SDS011;2665;53.112;7.358;2024-02-21T11:39:57;13.10;;;6.77;;
5285;SDS011;2665;53.112;7.358;2024-02-21T11:42:24;10.03;;;5.60;;
5285;SDS011;2665;53.112;7.358;2024-02-21T11:44:50;10.10;;;5.37;;
5285;SDS011;2665;53.112;7.358;2024-02-21T11:47:17;12.63;;;6.77;;
5285;SDS011;2665;53.112;7.358;2024-02-21T11:49:46;9.90;;;5.07;;
5285;SDS011;2665;53.112;7.358;2024-02-21T11:52:20;8.63;;;4.90;;
5285;SDS011;2665;53.112;7.358;2024-02-21T11:54:47;11.23;;;6.00;;
5285;SDS011;2665;53.112;7.358;2024-02-21T11:57:13;8.60;;;5.90;;
5285;SDS011;2665;53.112;7.358;2024-02-21T11:59:39;9.17;;;5.67;;
5285;SDS011;2665;53.112;7.358;2024-02-21T12:02:06;10.37;;;4.73;;
5285;SDS011;2665;53.112;7.358;2024-02-21T12:04:32;11.40;;;5.17;;
5285;SDS011;2665;53.112;7.358;2024-02-21T12:06:58;10.00;;;5.13;;
5285;SDS011;2665;53.112;7.358;2024-02-21T12:09:24;6.00;;;5.03;;
5285;SDS011;2665;53.112;7.358;2024-02-21T12:12:00;9.80;;;4.67;;
5285;SDS011;2665;53.112;7.358;2024-02-21T12:14:31;6.50;;;4.60;;
5285;SDS011;2665;53.112;7.358;2024-02-21T12:16:58;8.30;;;4.73;;
5285;SDS011;2665;53.112;7.358;2024-02-21T12:19:25;11.50;;;5.20;;
5285;SDS011;2665;53.112;7.358;2024-02-21T12:21:50;11.30;;;4.60;;
5285;SDS011;2665;53.112;7.358;2024-02-21T12:24:20;5.13;;;3.60;;
5285;SDS011;2665;53.112;7.358;2024-02-21T12:26:51;6.40;;;4.30;;
5285;SDS011;2665;53.112;7.358;2024-02-21T12:29:21;10.63;;;4.20;;
5285;SDS011;2665;53.112;7.358;2024-02-21T12:31:47;8.60;;;4.40;;
5285;SDS011;2665;53.112;7.358;2024-02-21T12:34:14;7.90;;;4.50;;
5285;SDS011;2665;53.112;7.358;2024-02-21T12:36:40;8.37;;;3.83;;
5285;SDS011;2665;53.112;7.358;2024-02-21T12:39:08;6.33;;;3.50;;
5285;SDS011;2665;53.112;7.358;2024-02-21T12:41:35;5.60;;;3.50;;
5285;SDS011;2665;53.112;7.358;2024-02-21T12:44:03;7.10;;;4.00;;
5285;SDS011;2665;53.112;7.358;2024-02-21T12:46:29;6.80;;;3.80;;
5285;SDS011;2665;53.112;7.358;2024-02-21T12:48:55;7.23;;;3.57;;
5285;SDS011;2665;53.112;7.358;2024-02-21T12:51:21;6.90;;;3.77;;
5285;SDS011;2665;53.112;7.358;2024-02-21T12:53:47;7.77;;;4.63;;
5285;SDS011;2665;53.112;7.358;2024-02-21T12:56:14;7.10;;;4.10;;
5285;SDS011;2665;53.112;7.358;2024-02-21T12:58:40;5.07;;;3.70;;
5285;SDS011;2665;53.112;7.358;2024-02-21T13:01:06;8.53;;;3.90;;
5285;SDS011;2665;53.112;7.358;2024-02-21T13:03:31;5.27;;;3.50;;
5285;SDS011;2665;53.112;7.358;2024-02-21T13:05:57;5.33;;;3.43;;
5285;SDS011;2665;53.112;7.358;2024-02-21T13:08:24;6.40;;;3.50;;
5285;SDS011;2665;53.112;7.358;2024-02-21T13:10:50;8.00;;;3.37;;
5285;SDS011;2665;53.112;7.358;2024-02-21T13:13:15;6.60;;;2.80;;
5285;SDS011;2665;53.112;7.358;2024-02-21T13:15:41;6.30;;;2.83;;
5285;SDS011;2665;53.112;7.358;2024-02-21T13:18:10;7.27;;;2.97;;
5285;SDS011;2665;53.112;7.358;2024-02-21T13:20:36;5.93;;;3.30;;
5285;SDS011;2665;53.112;7.358;2024-02-21T13:23:01;5.03;;;3.73;;
5285;SDS011;2665;53.112;7.358;2024-02-21T13:25:27;9.53;;;2.90;;
5285;SDS011;2665;53.112;7.358;2024-02-21T13:27:53;4.43;;;3.23;;
5285;SDS011;2665;53.112;7.358;2024-02-21T13:30:19;5.33;;;3.33;;
5285;SDS011;2665;53.112;7.358;2024-02-21T13:32:44;5.63;;;3.00;;
5285;SDS011;2665;53.112;7.358;2024-02-21T13:35:13;3.83;;;2.30;;
5285;SDS011;2665;53.112;7.358;2024-02-21T13:37:42;5.83;;;2.57;;
5285;SDS011;2665;53.112;7.358;2024-02-21T13:40:08;3.80;;;2.77;;
5285;SDS011;2665;53.112;7.358;2024-02-21T13:42:34;4.23;;;2.00;;
5285;SDS011;2665;53.112;7.358;2024-02-21T13:45:01;4.40;;;2.27;;
5285;SDS011;2665;53.112;7.358;2024-02-21T13:47:28;4.80;;;2.50;;
5285;SDS011;2665;53.112;7.358;2024-02-21T13:49:54;4.03;;;2.50;;
5285;SDS011;2665;53.112;7.358;2024-02-21T13:52:20;4.07;;;2.47;;
5285;SDS011;2665;53.112;7.358;2024-02-21T13:54:46;4.23;;;2.30;;
5285;SDS011;2665;53.112;7.358;2024-02-21T13:57:12;5.10;;;2.43;;
5285;SDS011;2665;53.112;7.358;2024-02-21T13:59:39;2.80;;;1.93;;
5285;SDS011;2665;53.112;7.358;2024-02-21T14:02:05;2.90;;;1.93;;
5285;SDS011;2665;53.112;7.358;2024-02-21T14:04:33;4.00;;;1.90;;
5285;SDS011;2665;53.112;7.358;2024-02-21T14:06:59;3.87;;;2.00;;
5285;SDS011;2665;53.112;7.358;2024-02-21T14:09:25;3.70;;;2.33;;
5285;SDS011;2665;53.112;7.358;2024-02-21T14:11:51;3.90;;;2.23;;
5285;SDS011;2665;53.112;7.358;2024-02-21T14:14:17;3.47;;;1.90;;
5285;SDS011;2665;53.112;7.358;2024-02-21T14:16:43;5.50;;;2.70;;
5285;SDS011;2665;53.112;7.358;2024-02-21T14:19:08;4.93;;;2.20;;
5285;SDS011;2665;53.112;7.358;2024-02-21T14:21:34;3.23;;;2.40;;
5285;SDS011;2665;53.112;7.358;2024-02-21T14:24:03;4.33;;;1.93;;
5285;SDS011;2665;53.112;7.358;2024-02-21T14:26:30;3.20;;;2.10;;
5285;SDS011;2665;53.112;7.358;2024-02-21T14:28:56;8.10;;;2.73;;
5285;SDS011;2665;53.112;7.358;2024-02-21T14:31:22;3.70;;;1.87;;
5285;SDS011;2665;53.112;7.358;2024-02-21T14:33:48;6.60;;;2.20;;
5285;SDS011;2665;53.112;7.358;2024-02-21T14:36:13;5.60;;;1.93;;
5285;SDS011;2665;53.112;7.358;2024-02-21T14:38:41;6.53;;;2.57;;
5285;SDS011;2665;53.112;7.358;2024-02-21T14:41:08;4.27;;;2.70;;
5285;SDS011;2665;53.112;7.358;2024-02-21T14:43:33;3.53;;;2.33;;
5285;SDS011;2665;53.112;7.358;2024-02-21T14:46:00;6.03;;;2.50;;
5285;SDS011;2665;53.112;7.358;2024-02-21T14:48:29;8.50;;;2.90;;
5285;SDS011;2665;53.112;7.358;2024-02-21T14:50:55;4.70;;;2.30;;
5285;SDS011;2665;53.112;7.358;2024-02-21T14:53:20;4.03;;;2.10;;
5285;SDS011;2665;53.112;7.358;2024-02-21T14:55:46;4.63;;;2.17;;
5285;SDS011;2665;53.112;7.358;2024-02-21T14:58:12;5.23;;;1.97;;
5285;SDS011;2665;53.112;7.358;2024-02-21T15:00:37;7.23;;;3.77;;
5285;SDS011;2665;53.112;7.358;2024-02-21T15:03:03;7.90;;;3.20;;